sensor_id;sensor_type;location;lat;lon;timestamp;temperature;humidity
51996;DHT22;38010;53.264;6.592;2023-02-24T00:01:16;14.50;99.90
51996;DHT22;38010;53.264;6.592;2023-02-24T00:03:57;14.50;99.90
51996;DHT22;38010;53.264;6.592;2023-02-24T00:06:28;14.50;99.90
51996;DHT22;38010;53.264;6.592;2023-02-24T00:09:03;14.50;99.90
51996;DHT22;38010;53.264;6.592;2023-02-24T00:11:31;14.40;99.90
51996;DHT22;38010;53.264;6.592;2023-02-24T00:13:57;14.40;99.90
51996;DHT22;38010;53.264;6.592;2023-02-24T00:16:24;14.40;99.90
51996;DHT22;38010;53.264;6.592;2023-02-24T00:18:50;14.40;99.90
51996;DHT22;38010;53.264;6.592;2023-02-24T00:21:16;14.40;99.90
51996;DHT22;38010;53.264;6.592;2023-02-24T00:23:44;14.40;99.90
51996;DHT22;38010;53.264;6.592;2023-02-24T00:26:12;14.40;99.90
51996;DHT22;38010;53.264;6.592;2023-02-24T00:28:39;14.40;99.90
51996;DHT22;38010;53.264;6.592;2023-02-24T00:31:16;14.40;99.90
51996;DHT22;38010;53.264;6.592;2023-02-24T00:33:43;14.40;99.90
51996;DHT22;38010;53.264;6.592;2023-02-24T00:36:12;14.30;99.90
51996;DHT22;38010;53.264;6.592;2023-02-24T00:38:39;14.30;99.90
51996;DHT22;38010;53.264;6.592;2023-02-24T01:25:50;14.10;99.90
51996;DHT22;38010;53.264;6.592;2023-02-24T01:28:17;14.10;99.90
51996;DHT22;38010;53.264;6.592;2023-02-24T01:30:43;14.10;99.90
51996;DHT22;38010;53.264;6.592;2023-02-24T01:33:10;14.10;99.90
51996;DHT22;38010;53.264;6.592;2023-02-24T01:35:39;14.10;99.90
51996;DHT22;38010;53.264;6.592;2023-02-24T01:38:05;14.10;99.90
51996;DHT22;38010;53.264;6.592;2023-02-24T01:40:31;14.10;99.90
51996;DHT22;38010;53.264;6.592;2023-02-24T01:42:57;14.10;99.90
51996;DHT22;38010;53.264;6.592;2023-02-24T01:45:28;14.10;99.90
51996;DHT22;38010;53.264;6.592;2023-02-24T01:48:00;14.10;99.90
51996;DHT22;38010;53.264;6.592;2023-02-24T01:50:27;14.00;99.90
51996;DHT22;38010;53.264;6.592;2023-02-24T01:52:59;14.00;99.90
51996;DHT22;38010;53.264;6.592;2023-02-24T01:55:50;14.00;99.90
51996;DHT22;38010;53.264;6.592;2023-02-24T01:58:24;14.00;99.90
51996;DHT22;38010;53.264;6.592;2023-02-24T02:00:51;14.00;99.90
51996;DHT22;38010;53.264;6.592;2023-02-24T02:03:29;14.00;99.90
51996;DHT22;38010;53.264;6.592;2023-02-24T02:06:03;14.00;99.90
51996;DHT22;38010;53.264;6.592;2023-02-24T02:08:30;14.00;99.90
51996;DHT22;38010;53.264;6.592;2023-02-24T02:11:00;14.00;99.90
51996;DHT22;38010;53.264;6.592;2023-02-24T02:13:28;14.00;99.90
51996;DHT22;38010;53.264;6.592;2023-02-24T02:15:59;14.00;99.90
51996;DHT22;38010;53.264;6.592;2023-02-24T02:24:00;13.90;99.90
51996;DHT22;38010;53.264;6.592;2023-02-24T02:34:36;13.90;99.90
51996;DHT22;38010;53.264;6.592;2023-02-24T02:37:32;13.90;99.90
51996;DHT22;38010;53.264;6.592;2023-02-24T02:40:07;13.90;99.90
51996;DHT22;38010;53.264;6.592;2023-02-24T02:42:57;13.90;99.90
51996;DHT22;38010;53.264;6.592;2023-02-24T02:48:00;13.90;99.90
51996;DHT22;38010;53.264;6.592;2023-02-24T02:50:45;13.90;99.90
51996;DHT22;38010;53.264;6.592;2023-02-24T02:53:31;13.90;99.90
51996;DHT22;38010;53.264;6.592;2023-02-24T02:56:09;13.90;99.90
51996;DHT22;38010;53.264;6.592;2023-02-24T02:58:41;13.80;99.90
51996;DHT22;38010;53.264;6.592;2023-02-24T03:01:08;13.90;99.90
51996;DHT22;38010;53.264;6.592;2023-02-24T03:03:44;13.90;99.90
51996;DHT22;38010;53.264;6.592;2023-02-24T03:06:36;13.80;99.90
51996;DHT22;38010;53.264;6.592;2023-02-24T03:09:11;13.80;99.90
51996;DHT22;38010;53.264;6.592;2023-02-24T03:11:56;13.80;99.90
51996;DHT22;38010;53.264;6.592;2023-02-24T03:14:27;13.80;99.90
51996;DHT22;38010;53.264;6.592;2023-02-24T03:16:54;13.80;99.90
51996;DHT22;38010;53.264;6.592;2023-02-24T03:19:32;13.80;99.90
51996;DHT22;38010;53.264;6.592;2023-02-24T03:22:18;13.80;99.90
51996;DHT22;38010;53.264;6.592;2023-02-24T03:24:46;13.80;99.90
51996;DHT22;38010;53.264;6.592;2023-02-24T03:27:27;13.80;99.90
51996;DHT22;38010;53.264;6.592;2023-02-24T03:30:03;13.80;99.90
51996;DHT22;38010;53.264;6.592;2023-02-24T03:32:37;13.80;99.90
51996;DHT22;38010;53.264;6.592;2023-02-24T03:35:20;13.80;99.90
51996;DHT22;38010;53.264;6.592;2023-02-24T03:37:47;13.80;99.90
51996;DHT22;38010;53.264;6.592;2023-02-24T03:40:14;13.70;99.90
51996;DHT22;38010;53.264;6.592;2023-02-24T03:42:48;13.70;99.90
51996;DHT22;38010;53.264;6.592;2023-02-24T03:45:16;13.80;99.90
51996;DHT22;38010;53.264;6.592;2023-02-24T03:47:42;13.70;99.90
51996;DHT22;38010;53.264;6.592;2023-02-24T03:50:15;13.70;99.90
51996;DHT22;38010;53.264;6.592;2023-02-24T03:53:03;13.70;99.90
51996;DHT22;38010;53.264;6.592;2023-02-24T04:01:12;13.70;99.90
51996;DHT22;38010;53.264;6.592;2023-02-24T04:04:05;13.70;99.90
51996;DHT22;38010;53.264;6.592;2023-02-24T04:10:03;13.70;99.90
51996;DHT22;38010;53.264;6.592;2023-02-24T04:13:27;13.70;99.90
51996;DHT22;38010;53.264;6.592;2023-02-24T04:15:35;13.70;99.90
51996;DHT22;38010;53.264;6.592;2023-02-24T04:18:06;13.70;99.90
51996;DHT22;38010;53.264;6.592;2023-02-24T04:20:34;13.70;99.90
51996;DHT22;38010;53.264;6.592;2023-02-24T04:23:07;13.70;99.90
51996;DHT22;38010;53.264;6.592;2023-02-24T04:25:35;13.70;99.90
51996;DHT22;38010;53.264;6.592;2023-02-24T04:28:03;13.70;99.90
51996;DHT22;38010;53.264;6.592;2023-02-24T04:30:38;13.70;99.90
51996;DHT22;38010;53.264;6.592;2023-02-24T04:33:06;13.80;99.90
51996;DHT22;38010;53.264;6.592;2023-02-24T04:35:32;13.80;99.90
51996;DHT22;38010;53.264;6.592;2023-02-24T04:37:58;13.80;99.90
51996;DHT22;38010;53.264;6.592;2023-02-24T04:40:25;13.80;99.90
51996;DHT22;38010;53.264;6.592;2023-02-24T04:42:52;13.80;99.90
51996;DHT22;38010;53.264;6.592;2023-02-24T04:45:26;13.80;99.90
51996;DHT22;38010;53.264;6.592;2023-02-24T04:47:54;13.80;99.90
51996;DHT22;38010;53.264;6.592;2023-02-24T04:50:23;13.80;99.90
51996;DHT22;38010;53.264;6.592;2023-02-24T04:52:50;13.80;99.90
51996;DHT22;38010;53.264;6.592;2023-02-24T04:55:18;13.90;99.90
51996;DHT22;38010;53.264;6.592;2023-02-24T04:57:45;13.90;99.90
51996;DHT22;38010;53.264;6.592;2023-02-24T05:00:13;13.90;99.90
51996;DHT22;38010;53.264;6.592;2023-02-24T05:02:49;13.90;99.90
51996;DHT22;38010;53.264;6.592;2023-02-24T05:05:16;13.90;99.90
51996;DHT22;38010;53.264;6.592;2023-02-24T05:07:42;13.90;99.90
51996;DHT22;38010;53.264;6.592;2023-02-24T05:10:13;13.90;99.90
51996;DHT22;38010;53.264;6.592;2023-02-24T05:12:40;13.90;99.90
51996;DHT22;38010;53.264;6.592;2023-02-24T05:15:06;14.00;99.90
51996;DHT22;38010;53.264;6.592;2023-02-24T05:17:33;14.00;99.90
51996;DHT22;38010;53.264;6.592;2023-02-24T05:19:59;14.00;99.90
51996;DHT22;38010;53.264;6.592;2023-02-24T05:22:48;14.00;99.90
51996;DHT22;38010;53.264;6.592;2023-02-24T05:25:17;14.00;99.90
51996;DHT22;38010;53.264;6.592;2023-02-24T05:27:43;14.00;99.90
51996;DHT22;38010;53.264;6.592;2023-02-24T05:30:09;14.10;99.90
51996;DHT22;38010;53.264;6.592;2023-02-24T05:32:36;14.10;99.90
51996;DHT22;38010;53.264;6.592;2023-02-24T05:35:02;14.10;99.90
51996;DHT22;38010;53.264;6.592;2023-02-24T05:37:28;14.00;99.90
51996;DHT22;38010;53.264;6.592;2023-02-24T05:39:57;14.00;99.90
51996;DHT22;38010;53.264;6.592;2023-02-24T05:42:25;14.00;99.90
51996;DHT22;38010;53.264;6.592;2023-02-24T05:44:52;14.00;99.90
51996;DHT22;38010;53.264;6.592;2023-02-24T05:47:18;14.00;99.90
51996;DHT22;38010;53.264;6.592;2023-02-24T05:49:44;14.00;99.90
51996;DHT22;38010;53.264;6.592;2023-02-24T05:52:12;14.00;99.90
51996;DHT22;38010;53.264;6.592;2023-02-24T05:54:42;13.90;99.90
51996;DHT22;38010;53.264;6.592;2023-02-24T05:57:13;13.90;99.90
51996;DHT22;38010;53.264;6.592;2023-02-24T05:59:42;14.00;99.90
51996;DHT22;38010;53.264;6.592;2023-02-24T06:02:13;14.00;99.90
51996;DHT22;38010;53.264;6.592;2023-02-24T06:04:42;14.00;99.90
51996;DHT22;38010;53.264;6.592;2023-02-24T06:07:26;14.00;99.90
51996;DHT22;38010;53.264;6.592;2023-02-24T06:09:54;14.00;99.90
51996;DHT22;38010;53.264;6.592;2023-02-24T06:12:25;14.00;99.90
51996;DHT22;38010;53.264;6.592;2023-02-24T06:14:52;14.00;99.90
51996;DHT22;38010;53.264;6.592;2023-02-24T06:17:19;14.00;99.90
51996;DHT22;38010;53.264;6.592;2023-02-24T06:19:48;14.00;99.90
51996;DHT22;38010;53.264;6.592;2023-02-24T06:22:16;14.10;99.90
51996;DHT22;38010;53.264;6.592;2023-02-24T06:24:43;14.10;99.90
51996;DHT22;38010;53.264;6.592;2023-02-24T06:27:13;14.10;99.90
51996;DHT22;38010;53.264;6.592;2023-02-24T06:29:53;14.10;99.90
51996;DHT22;38010;53.264;6.592;2023-02-24T06:32:21;14.10;99.90
51996;DHT22;38010;53.264;6.592;2023-02-24T06:34:48;14.10;99.90
51996;DHT22;38010;53.264;6.592;2023-02-24T06:37:14;14.10;99.90
51996;DHT22;38010;53.264;6.592;2023-02-24T06:39:40;14.10;99.90
51996;DHT22;38010;53.264;6.592;2023-02-24T06:42:06;14.10;99.90
51996;DHT22;38010;53.264;6.592;2023-02-24T06:44:34;14.00;99.90
51996;DHT22;38010;53.264;6.592;2023-02-24T06:47:01;14.00;99.90
51996;DHT22;38010;53.264;6.592;2023-02-24T06:49:27;14.00;99.90
51996;DHT22;38010;53.264;6.592;2023-02-24T06:51:53;14.00;99.90
51996;DHT22;38010;53.264;6.592;2023-02-24T06:54:20;14.00;99.90
51996;DHT22;38010;53.264;6.592;2023-02-24T06:56:53;14.00;99.90
51996;DHT22;38010;53.264;6.592;2023-02-24T06:59:19;14.00;99.90
51996;DHT22;38010;53.264;6.592;2023-02-24T07:01:54;14.00;99.90
51996;DHT22;38010;53.264;6.592;2023-02-24T07:04:20;14.10;99.90
51996;DHT22;38010;53.264;6.592;2023-02-24T07:06:57;14.10;99.90
51996;DHT22;38010;53.264;6.592;2023-02-24T07:09:27;14.10;99.90
51996;DHT22;38010;53.264;6.592;2023-02-24T07:11:54;14.10;99.90
51996;DHT22;38010;53.264;6.592;2023-02-24T07:14:26;14.20;99.90
51996;DHT22;38010;53.264;6.592;2023-02-24T07:16:52;14.20;99.90
51996;DHT22;38010;53.264;6.592;2023-02-24T07:19:20;14.20;99.90
51996;DHT22;38010;53.264;6.592;2023-02-24T07:21:47;14.20;99.90
51996;DHT22;38010;53.264;6.592;2023-02-24T07:24:19;14.20;99.90
51996;DHT22;38010;53.264;6.592;2023-02-24T07:26:57;14.20;99.90
51996;DHT22;38010;53.264;6.592;2023-02-24T07:29:25;14.30;99.90
51996;DHT22;38010;53.264;6.592;2023-02-24T07:31:51;14.20;99.90
51996;DHT22;38010;53.264;6.592;2023-02-24T07:34:24;14.20;99.90
51996;DHT22;38010;53.264;6.592;2023-02-24T07:36:51;14.20;99.90
51996;DHT22;38010;53.264;6.592;2023-02-24T07:39:17;14.20;99.90
51996;DHT22;38010;53.264;6.592;2023-02-24T07:41:44;14.20;99.90
51996;DHT22;38010;53.264;6.592;2023-02-24T07:44:12;14.20;99.90
51996;DHT22;38010;53.264;6.592;2023-02-24T07:46:38;14.20;99.90
51996;DHT22;38010;53.264;6.592;2023-02-24T07:49:05;14.20;99.90
51996;DHT22;38010;53.264;6.592;2023-02-24T07:51:34;14.20;99.90
51996;DHT22;38010;53.264;6.592;2023-02-24T07:54:01;14.20;99.90
51996;DHT22;38010;53.264;6.592;2023-02-24T07:56:28;14.20;99.90
51996;DHT22;38010;53.264;6.592;2023-02-24T07:59:03;14.20;99.90
51996;DHT22;38010;53.264;6.592;2023-02-24T08:01:36;14.20;99.90
51996;DHT22;38010;53.264;6.592;2023-02-24T08:04:07;14.20;99.90
51996;DHT22;38010;53.264;6.592;2023-02-24T08:06:35;14.20;99.90
51996;DHT22;38010;53.264;6.592;2023-02-24T08:09:07;14.20;99.90
51996;DHT22;38010;53.264;6.592;2023-02-24T08:11:47;14.20;99.90
51996;DHT22;38010;53.264;6.592;2023-02-24T08:14:34;14.20;99.90
51996;DHT22;38010;53.264;6.592;2023-02-24T08:17:10;14.20;99.90
51996;DHT22;38010;53.264;6.592;2023-02-24T08:19:37;14.20;99.90
51996;DHT22;38010;53.264;6.592;2023-02-24T08:22:10;14.20;99.90
51996;DHT22;38010;53.264;6.592;2023-02-24T08:24:58;14.20;99.90
51996;DHT22;38010;53.264;6.592;2023-02-24T08:27:33;14.20;99.90
51996;DHT22;38010;53.264;6.592;2023-02-24T08:30:04;14.30;99.90
51996;DHT22;38010;53.264;6.592;2023-02-24T08:32:40;14.30;99.90
51996;DHT22;38010;53.264;6.592;2023-02-24T08:35:18;14.30;99.90
51996;DHT22;38010;53.264;6.592;2023-02-24T08:37:46;14.40;99.90
51996;DHT22;38010;53.264;6.592;2023-02-24T08:40:25;14.40;99.90
51996;DHT22;38010;53.264;6.592;2023-02-24T08:48:19;14.60;99.90
51996;DHT22;38010;53.264;6.592;2023-02-24T08:50:53;14.70;99.90
51996;DHT22;38010;53.264;6.592;2023-02-24T08:53:19;14.80;99.90
51996;DHT22;38010;53.264;6.592;2023-02-24T08:55:48;14.80;99.90
51996;DHT22;38010;53.264;6.592;2023-02-24T08:58:20;14.90;99.90
51996;DHT22;38010;53.264;6.592;2023-02-24T09:00:55;15.00;99.90
51996;DHT22;38010;53.264;6.592;2023-02-24T09:03:25;15.00;99.90
51996;DHT22;38010;53.264;6.592;2023-02-24T09:05:58;15.00;99.90
51996;DHT22;38010;53.264;6.592;2023-02-24T09:08:25;15.10;99.90
51996;DHT22;38010;53.264;6.592;2023-02-24T09:10:58;15.10;99.90
51996;DHT22;38010;53.264;6.592;2023-02-24T09:13:24;15.10;99.90
51996;DHT22;38010;53.264;6.592;2023-02-24T09:15:59;15.10;99.90
51996;DHT22;38010;53.264;6.592;2023-02-24T09:18:25;15.10;99.90
51996;DHT22;38010;53.264;6.592;2023-02-24T09:20:55;15.10;99.90
51996;DHT22;38010;53.264;6.592;2023-02-24T09:23:40;15.10;99.90
51996;DHT22;38010;53.264;6.592;2023-02-24T09:26:12;15.10;99.90
51996;DHT22;38010;53.264;6.592;2023-02-24T09:28:41;15.10;99.90
51996;DHT22;38010;53.264;6.592;2023-02-24T09:31:14;15.10;99.90
51996;DHT22;38010;53.264;6.592;2023-02-24T09:33:43;15.10;99.90
51996;DHT22;38010;53.264;6.592;2023-02-24T09:36:17;15.00;99.90
51996;DHT22;38010;53.264;6.592;2023-02-24T09:38:57;15.00;99.90
51996;DHT22;38010;53.264;6.592;2023-02-24T09:41:38;15.00;99.90
51996;DHT22;38010;53.264;6.592;2023-02-24T09:46:58;15.00;99.90
51996;DHT22;38010;53.264;6.592;2023-02-24T09:52:16;14.90;99.90
51996;DHT22;38010;53.264;6.592;2023-02-24T09:54:45;14.90;99.90
51996;DHT22;38010;53.264;6.592;2023-02-24T09:57:31;14.90;99.90
51996;DHT22;38010;53.264;6.592;2023-02-24T10:00:06;14.80;99.90
51996;DHT22;38010;53.264;6.592;2023-02-24T10:03:20;14.80;99.90
51996;DHT22;38010;53.264;6.592;2023-02-24T10:06:06;14.80;99.90
51996;DHT22;38010;53.264;6.592;2023-02-24T10:08:40;14.80;99.90
51996;DHT22;38010;53.264;6.592;2023-02-24T10:11:09;14.80;99.90
51996;DHT22;38010;53.264;6.592;2023-02-24T10:13:47;14.80;99.90
51996;DHT22;38010;53.264;6.592;2023-02-24T10:16:17;14.80;99.90
51996;DHT22;38010;53.264;6.592;2023-02-24T10:19:02;14.70;99.90
51996;DHT22;38010;53.264;6.592;2023-02-24T10:21:55;14.80;99.90
51996;DHT22;38010;53.264;6.592;2023-02-24T10:27:05;14.70;99.90
51996;DHT22;38010;53.264;6.592;2023-02-24T10:32:44;14.60;99.90
51996;DHT22;38010;53.264;6.592;2023-02-24T10:35:17;14.60;99.90
51996;DHT22;38010;53.264;6.592;2023-02-24T10:37:44;14.60;99.90
51996;DHT22;38010;53.264;6.592;2023-02-24T10:40:10;14.70;99.90
51996;DHT22;38010;53.264;6.592;2023-02-24T10:42:42;14.60;99.90
51996;DHT22;38010;53.264;6.592;2023-02-24T10:45:24;14.60;99.90
51996;DHT22;38010;53.264;6.592;2023-02-24T10:47:53;14.60;99.90
51996;DHT22;38010;53.264;6.592;2023-02-24T10:50:39;14.60;99.90
51996;DHT22;38010;53.264;6.592;2023-02-24T10:53:12;14.60;99.90
51996;DHT22;38010;53.264;6.592;2023-02-24T10:55:58;14.60;99.90
51996;DHT22;38010;53.264;6.592;2023-02-24T10:59:08;14.60;99.90
51996;DHT22;38010;53.264;6.592;2023-02-24T11:02:17;14.60;99.90
51996;DHT22;38010;53.264;6.592;2023-02-24T11:05:06;14.50;99.90
51996;DHT22;38010;53.264;6.592;2023-02-24T11:08:01;14.50;99.90
51996;DHT22;38010;53.264;6.592;2023-02-24T11:10:38;14.50;99.90
51996;DHT22;38010;53.264;6.592;2023-02-24T11:13:17;14.50;99.90
51996;DHT22;38010;53.264;6.592;2023-02-24T11:16:02;14.50;99.90
51996;DHT22;38010;53.264;6.592;2023-02-24T11:18:55;14.60;99.90
51996;DHT22;38010;53.264;6.592;2023-02-24T11:21:24;14.50;99.90
51996;DHT22;38010;53.264;6.592;2023-02-24T11:23:54;14.60;99.90
51996;DHT22;38010;53.264;6.592;2023-02-24T11:26:31;14.60;99.90
51996;DHT22;38010;53.264;6.592;2023-02-24T11:39:49;14.60;99.90
51996;DHT22;38010;53.264;6.592;2023-02-24T11:42:40;14.60;99.90
51996;DHT22;38010;53.264;6.592;2023-02-24T11:59:09;14.40;99.90
51996;DHT22;38010;53.264;6.592;2023-02-24T12:01:51;14.40;99.90
51996;DHT22;38010;53.264;6.592;2023-02-24T12:04:28;14.40;99.90
51996;DHT22;38010;53.264;6.592;2023-02-24T12:09:30;14.40;99.90
51996;DHT22;38010;53.264;6.592;2023-02-24T12:15:21;14.40;99.90
51996;DHT22;38010;53.264;6.592;2023-02-24T12:17:35;14.30;99.90
51996;DHT22;38010;53.264;6.592;2023-02-24T12:20:08;14.30;99.90
51996;DHT22;38010;53.264;6.592;2023-02-24T12:22:49;14.30;99.90
51996;DHT22;38010;53.264;6.592;2023-02-24T12:25:18;14.30;99.90
51996;DHT22;38010;53.264;6.592;2023-02-24T12:27:54;14.30;99.90
51996;DHT22;38010;53.264;6.592;2023-02-24T12:41:47;14.20;99.90
51996;DHT22;38010;53.264;6.592;2023-02-24T12:47:09;14.30;99.90
51996;DHT22;38010;53.264;6.592;2023-02-24T12:52:36;14.30;99.90
51996;DHT22;38010;53.264;6.592;2023-02-24T12:55:20;14.30;99.90
51996;DHT22;38010;53.264;6.592;2023-02-24T12:58:12;14.30;99.90
51996;DHT22;38010;53.264;6.592;2023-02-24T13:00:50;14.30;99.90
51996;DHT22;38010;53.264;6.592;2023-02-24T13:14:03;14.30;99.90
51996;DHT22;38010;53.264;6.592;2023-02-24T13:16:34;14.30;99.90
51996;DHT22;38010;53.264;6.592;2023-02-24T13:19:18;14.30;99.90
51996;DHT22;38010;53.264;6.592;2023-02-24T13:27:36;14.30;99.90
51996;DHT22;38010;53.264;6.592;2023-02-24T13:32:46;14.30;99.90
51996;DHT22;38010;53.264;6.592;2023-02-24T13:37:49;14.20;99.90
51996;DHT22;38010;53.264;6.592;2023-02-24T13:42:59;14.20;99.90
51996;DHT22;38010;53.264;6.592;2023-02-24T13:45:36;14.20;99.90
51996;DHT22;38010;53.264;6.592;2023-02-24T13:54:24;14.10;99.90
51996;DHT22;38010;53.264;6.592;2023-02-24T14:02:18;14.10;99.90
51996;DHT22;38010;53.264;6.592;2023-02-24T14:04:50;14.00;99.90
51996;DHT22;38010;53.264;6.592;2023-02-24T14:07:23;14.10;99.90
51996;DHT22;38010;53.264;6.592;2023-02-24T14:09:58;14.10;99.90
51996;DHT22;38010;53.264;6.592;2023-02-24T14:12:26;14.10;99.90
51996;DHT22;38010;53.264;6.592;2023-02-24T14:14:55;14.20;99.90
51996;DHT22;38010;53.264;6.592;2023-02-24T14:17:25;14.20;99.90
51996;DHT22;38010;53.264;6.592;2023-02-24T14:20:17;14.30;99.90
51996;DHT22;38010;53.264;6.592;2023-02-24T14:22:48;14.30;99.90
51996;DHT22;38010;53.264;6.592;2023-02-24T14:25:16;14.20;99.90
51996;DHT22;38010;53.264;6.592;2023-02-24T14:27:44;14.20;99.90
51996;DHT22;38010;53.264;6.592;2023-02-24T14:30:39;14.20;99.90
51996;DHT22;38010;53.264;6.592;2023-02-24T14:33:06;14.20;99.90
51996;DHT22;38010;53.264;6.592;2023-02-24T14:35:45;14.20;99.90
51996;DHT22;38010;53.264;6.592;2023-02-24T14:38:38;14.30;99.90
51996;DHT22;38010;53.264;6.592;2023-02-24T14:41:21;14.30;99.90
51996;DHT22;38010;53.264;6.592;2023-02-24T14:43:47;14.40;99.90
51996;DHT22;38010;53.264;6.592;2023-02-24T14:46:13;14.40;99.90
51996;DHT22;38010;53.264;6.592;2023-02-24T14:48:42;14.30;99.90
51996;DHT22;38010;53.264;6.592;2023-02-24T14:53:54;14.30;99.90
51996;DHT22;38010;53.264;6.592;2023-02-24T14:56:27;14.20;99.90
51996;DHT22;38010;53.264;6.592;2023-02-24T14:59:06;14.20;99.90
51996;DHT22;38010;53.264;6.592;2023-02-24T15:01:39;14.20;99.90
51996;DHT22;38010;53.264;6.592;2023-02-24T15:04:24;14.30;99.90
51996;DHT22;38010;53.264;6.592;2023-02-24T15:06:55;14.30;99.90
51996;DHT22;38010;53.264;6.592;2023-02-24T15:09:24;14.30;99.90
51996;DHT22;38010;53.264;6.592;2023-02-24T15:11:51;14.30;99.90
51996;DHT22;38010;53.264;6.592;2023-02-24T15:14:26;14.30;99.90
51996;DHT22;38010;53.264;6.592;2023-02-24T15:16:58;14.30;99.90
51996;DHT22;38010;53.264;6.592;2023-02-24T15:19:37;14.30;99.90
51996;DHT22;38010;53.264;6.592;2023-02-24T15:22:31;14.30;99.90
51996;DHT22;38010;53.264;6.592;2023-02-24T15:27:52;14.30;99.90
51996;DHT22;38010;53.264;6.592;2023-02-24T15:30:39;14.40;99.90
51996;DHT22;38010;53.264;6.592;2023-02-24T15:33:22;14.40;99.90
51996;DHT22;38010;53.264;6.592;2023-02-24T15:35:54;14.40;99.90
51996;DHT22;38010;53.264;6.592;2023-02-24T15:38:34;14.40;99.90
51996;DHT22;38010;53.264;6.592;2023-02-24T15:41:03;14.40;99.90
51996;DHT22;38010;53.264;6.592;2023-02-24T15:45:56;14.40;99.90
51996;DHT22;38010;53.264;6.592;2023-02-24T15:48:23;14.40;99.90
51996;DHT22;38010;53.264;6.592;2023-02-24T15:50:52;14.40;99.90
51996;DHT22;38010;53.264;6.592;2023-02-24T15:53:18;14.30;99.90
51996;DHT22;38010;53.264;6.592;2023-02-24T15:55:44;14.40;99.90
51996;DHT22;38010;53.264;6.592;2023-02-24T15:58:17;14.30;99.90
51996;DHT22;38010;53.264;6.592;2023-02-24T16:00:44;14.40;99.90
51996;DHT22;38010;53.264;6.592;2023-02-24T16:03:11;14.40;99.90
51996;DHT22;38010;53.264;6.592;2023-02-24T16:05:37;14.40;99.90
51996;DHT22;38010;53.264;6.592;2023-02-24T16:08:03;14.50;99.90
51996;DHT22;38010;53.264;6.592;2023-02-24T16:10:29;14.50;99.90
51996;DHT22;38010;53.264;6.592;2023-02-24T16:12:57;14.60;99.90
51996;DHT22;38010;53.264;6.592;2023-02-24T16:15:30;14.60;99.90
51996;DHT22;38010;53.264;6.592;2023-02-24T16:17:56;14.70;99.90
51996;DHT22;38010;53.264;6.592;2023-02-24T16:20:25;14.60;99.90
51996;DHT22;38010;53.264;6.592;2023-02-24T16:23:00;14.70;99.90
51996;DHT22;38010;53.264;6.592;2023-02-24T16:25:28;14.70;99.90
51996;DHT22;38010;53.264;6.592;2023-02-24T16:27:54;14.70;99.90
51996;DHT22;38010;53.264;6.592;2023-02-24T16:30:26;14.70;99.90
51996;DHT22;38010;53.264;6.592;2023-02-24T16:32:58;14.60;99.90
51996;DHT22;38010;53.264;6.592;2023-02-24T16:35:25;14.60;99.90
51996;DHT22;38010;53.264;6.592;2023-02-24T16:37:52;14.50;99.90
51996;DHT22;38010;53.264;6.592;2023-02-24T16:40:26;14.60;99.90
51996;DHT22;38010;53.264;6.592;2023-02-24T16:42:54;14.50;99.90
51996;DHT22;38010;53.264;6.592;2023-02-24T16:45:20;14.50;99.90
51996;DHT22;38010;53.264;6.592;2023-02-24T16:47:47;14.40;99.90
51996;DHT22;38010;53.264;6.592;2023-02-24T16:50:20;14.40;99.90
51996;DHT22;38010;53.264;6.592;2023-02-24T16:52:46;14.40;99.90
51996;DHT22;38010;53.264;6.592;2023-02-24T16:55:12;14.40;99.90
51996;DHT22;38010;53.264;6.592;2023-02-24T16:57:40;14.40;99.90
51996;DHT22;38010;53.264;6.592;2023-02-24T17:00:06;14.40;99.90
51996;DHT22;38010;53.264;6.592;2023-02-24T17:02:32;14.30;99.90
51996;DHT22;38010;53.264;6.592;2023-02-24T17:04:58;14.30;99.90
51996;DHT22;38010;53.264;6.592;2023-02-24T17:07:24;14.30;99.90
51996;DHT22;38010;53.264;6.592;2023-02-24T17:09:49;14.30;99.90
51996;DHT22;38010;53.264;6.592;2023-02-24T17:12:19;14.30;99.90
51996;DHT22;38010;53.264;6.592;2023-02-24T17:14:45;14.30;99.90
51996;DHT22;38010;53.264;6.592;2023-02-24T17:17:11;14.20;99.90
51996;DHT22;38010;53.264;6.592;2023-02-24T17:19:37;14.20;99.90
51996;DHT22;38010;53.264;6.592;2023-02-24T17:22:03;14.20;99.90
51996;DHT22;38010;53.264;6.592;2023-02-24T17:24:29;14.20;99.90
51996;DHT22;38010;53.264;6.592;2023-02-24T17:26:55;14.20;99.90
51996;DHT22;38010;53.264;6.592;2023-02-24T17:29:25;14.20;99.90
51996;DHT22;38010;53.264;6.592;2023-02-24T17:31:51;14.20;99.90
51996;DHT22;38010;53.264;6.592;2023-02-24T17:34:17;14.20;99.90
51996;DHT22;38010;53.264;6.592;2023-02-24T17:36:42;14.20;99.90
51996;DHT22;38010;53.264;6.592;2023-02-24T17:39:08;14.20;99.90
51996;DHT22;38010;53.264;6.592;2023-02-24T17:41:33;14.20;99.90
51996;DHT22;38010;53.264;6.592;2023-02-24T17:44:00;14.30;99.90
51996;DHT22;38010;53.264;6.592;2023-02-24T17:46:25;14.40;99.90
51996;DHT22;38010;53.264;6.592;2023-02-24T17:48:51;14.40;99.90
51996;DHT22;38010;53.264;6.592;2023-02-24T17:51:18;14.40;99.90
51996;DHT22;38010;53.264;6.592;2023-02-24T17:53:44;14.50;99.90
51996;DHT22;38010;53.264;6.592;2023-02-24T17:56:10;14.60;99.90
51996;DHT22;38010;53.264;6.592;2023-02-24T17:58:37;14.60;99.90
51996;DHT22;38010;53.264;6.592;2023-02-24T18:01:04;14.70;99.90
51996;DHT22;38010;53.264;6.592;2023-02-24T18:03:31;14.90;99.90
51996;DHT22;38010;53.264;6.592;2023-02-24T18:06:06;15.00;99.90
51996;DHT22;38010;53.264;6.592;2023-02-24T18:08:33;15.30;99.90
51996;DHT22;38010;53.264;6.592;2023-02-24T18:10:59;15.30;99.90
51996;DHT22;38010;53.264;6.592;2023-02-24T18:13:26;15.40;99.90
51996;DHT22;38010;53.264;6.592;2023-02-24T18:15:52;15.50;99.90
51996;DHT22;38010;53.264;6.592;2023-02-24T18:18:18;15.60;99.90
51996;DHT22;38010;53.264;6.592;2023-02-24T18:20:44;15.70;99.90
51996;DHT22;38010;53.264;6.592;2023-02-24T18:23:11;15.70;99.90
51996;DHT22;38010;53.264;6.592;2023-02-24T18:25:37;15.80;99.90
51996;DHT22;38010;53.264;6.592;2023-02-24T18:28:03;15.80;99.90
51996;DHT22;38010;53.264;6.592;2023-02-24T18:30:29;15.80;99.90
51996;DHT22;38010;53.264;6.592;2023-02-24T18:32:54;15.80;99.90
51996;DHT22;38010;53.264;6.592;2023-02-24T18:35:20;15.80;99.90
51996;DHT22;38010;53.264;6.592;2023-02-24T18:37:50;15.70;99.90
51996;DHT22;38010;53.264;6.592;2023-02-24T18:40:29;15.70;99.90
51996;DHT22;38010;53.264;6.592;2023-02-24T18:42:55;15.60;99.90
51996;DHT22;38010;53.264;6.592;2023-02-24T18:52:45;15.40;99.90
51996;DHT22;38010;53.264;6.592;2023-02-24T18:55:10;15.40;99.90
51996;DHT22;38010;53.264;6.592;2023-02-24T18:57:36;15.30;99.90
51996;DHT22;38010;53.264;6.592;2023-02-24T19:00:03;15.30;99.90
51996;DHT22;38010;53.264;6.592;2023-02-24T19:02:29;15.20;99.90
51996;DHT22;38010;53.264;6.592;2023-02-24T19:04:55;15.20;99.90